createdAt,value
2018-12-05T00:00:57.149Z,96.00
2018-12-05T00:03:31.458Z,96.00
2018-12-05T00:06:05.860Z,95.90
2018-12-05T00:08:40.245Z,96.00
2018-12-05T00:11:14.802Z,95.90
2018-12-05T00:13:49.101Z,96.00
2018-12-05T00:16:24.541Z,96.00
2018-12-05T00:18:59.093Z,96.10
2018-12-05T00:21:33.447Z,96.20
2018-12-05T00:24:08.940Z,96.20
2018-12-05T00:26:43.445Z,96.20
2018-12-05T00:29:17.899Z,96.10
2018-12-05T00:31:52.301Z,96.20
2018-12-05T00:34:26.758Z,96.20
2018-12-05T00:37:01.085Z,96.20
2018-12-05T00:39:35.497Z,96.10
2018-12-05T00:42:09.885Z,96.10
2018-12-05T00:44:44.844Z,96.10
2018-12-05T00:47:19.301Z,96.10
2018-12-05T00:49:53.795Z,96.00
2018-12-05T00:52:28.115Z,95.80
2018-12-05T00:55:02.481Z,96.00
2018-12-05T00:57:37.085Z,96.10
2018-12-05T01:00:11.707Z,95.90
2018-12-05T01:02:46.150Z,95.90
2018-12-05T01:05:21.380Z,96.00
2018-12-05T01:07:56.176Z,95.90
2018-12-05T01:10:31.835Z,95.80
2018-12-05T01:13:06.125Z,96.10
2018-12-05T01:15:40.441Z,96.10
2018-12-05T01:18:14.752Z,96.10
2018-12-05T01:20:49.194Z,96.10
2018-12-05T01:23:23.893Z,96.20
2018-12-05T01:25:58.476Z,96.40
2018-12-05T01:28:32.773Z,96.20
2018-12-05T01:31:07.152Z,96.10
2018-12-05T01:33:41.474Z,96.00
2018-12-05T01:36:15.853Z,96.00
2018-12-05T01:38:50.301Z,96.10
2018-12-05T01:41:24.899Z,96.20
2018-12-05T01:43:59.402Z,96.20
2018-12-05T01:46:33.925Z,96.20
2018-12-05T01:49:08.373Z,96.20
2018-12-05T01:51:42.759Z,96.20
2018-12-05T01:54:17.050Z,96.20
2018-12-05T01:56:51.326Z,96.10
2018-12-05T01:59:26.017Z,96.00
2018-12-05T02:02:00.555Z,96.00
2018-12-05T02:04:35.002Z,96.00
2018-12-05T02:07:09.383Z,95.90
2018-12-05T02:09:46.734Z,96.30
2018-12-05T02:12:21.179Z,95.90
2018-12-05T02:14:55.497Z,95.80
2018-12-05T02:17:29.958Z,95.80
2018-12-05T02:20:04.749Z,95.70
2018-12-05T02:22:39.119Z,95.80
2018-12-05T02:25:13.514Z,95.90
2018-12-05T02:27:47.857Z,95.80
2018-12-05T02:30:22.202Z,95.80
2018-12-05T02:32:56.493Z,95.80
2018-12-05T02:35:30.825Z,95.70
2018-12-05T02:38:05.357Z,95.70
2018-12-05T02:40:39.778Z,95.70
2018-12-05T02:43:14.180Z,95.70
2018-12-05T02:45:48.438Z,95.80
2018-12-05T02:48:22.785Z,95.90
2018-12-05T02:50:57.049Z,96.00
2018-12-05T02:53:31.402Z,96.10
2018-12-05T02:56:05.679Z,96.00
2018-12-05T02:58:39.959Z,95.80
2018-12-05T03:01:14.219Z,95.80
2018-12-05T03:03:48.617Z,95.80
2018-12-05T03:06:23.234Z,95.80
2018-12-05T03:08:57.824Z,95.80
2018-12-05T03:11:32.161Z,95.50
2018-12-05T03:14:06.653Z,95.60
2018-12-05T03:16:41.034Z,95.70
2018-12-05T03:19:15.458Z,95.60
2018-12-05T03:21:49.921Z,95.50
2018-12-05T03:24:24.301Z,95.40
2018-12-05T03:26:58.635Z,95.50
2018-12-05T03:29:32.968Z,95.60
2018-12-05T03:32:07.337Z,95.50
2018-12-05T03:34:41.654Z,95.50
2018-12-05T03:37:16.115Z,95.50
2018-12-05T03:39:50.423Z,95.60
2018-12-05T03:42:24.697Z,95.60
2018-12-05T03:44:59.046Z,95.60
2018-12-05T03:47:33.602Z,95.80
2018-12-05T03:50:08.145Z,96.00
2018-12-05T03:52:42.622Z,95.90
2018-12-05T03:55:17.087Z,95.80
2018-12-05T03:57:51.426Z,95.80
2018-12-05T04:00:25.773Z,95.70
2018-12-05T04:03:00.305Z,95.50
2018-12-05T04:05:34.879Z,95.50
2018-12-05T04:08:09.305Z,95.60
2018-12-05T04:10:43.765Z,95.60
2018-12-05T04:13:18.294Z,95.50
2018-12-05T04:15:52.724Z,95.50
2018-12-05T04:18:27.060Z,95.50
2018-12-05T04:21:01.534Z,95.60
2018-12-05T04:23:35.775Z,95.50
2018-12-05T04:26:10.093Z,95.70
2018-12-05T04:28:44.516Z,95.60
2018-12-05T04:31:18.801Z,95.50
2018-12-05T04:33:53.345Z,95.70
2018-12-05T04:36:27.678Z,95.80
2018-12-05T04:39:02.205Z,95.90
2018-12-05T04:41:36.696Z,95.80
2018-12-05T04:44:11.146Z,95.70
2018-12-05T04:46:45.445Z,95.70
2018-12-05T04:49:19.843Z,95.70
2018-12-05T04:51:54.121Z,95.70
2018-12-05T04:54:28.654Z,95.80
2018-12-05T04:57:03.220Z,95.90
2018-12-05T04:59:37.747Z,95.90
2018-12-05T05:02:12.172Z,95.80
2018-12-05T05:04:46.717Z,95.90
2018-12-05T05:07:21.029Z,95.90
2018-12-05T05:09:55.391Z,95.80
2018-12-05T05:12:29.670Z,95.80
2018-12-05T05:15:04.175Z,95.80
2018-12-05T05:17:38.749Z,95.80
2018-12-05T05:20:13.067Z,95.80
2018-12-05T05:22:47.802Z,95.70
2018-12-05T05:25:22.085Z,95.80
2018-12-05T05:27:56.453Z,95.80
2018-12-05T05:30:30.937Z,95.70
2018-12-05T05:33:05.277Z,95.80
2018-12-05T05:35:39.561Z,95.60
2018-12-05T05:38:13.908Z,95.50
2018-12-05T05:40:48.487Z,95.50
2018-12-05T05:43:22.947Z,95.50
2018-12-05T05:45:57.541Z,95.60
2018-12-05T05:48:31.834Z,95.70
2018-12-05T05:51:05.950Z,95.60
2018-12-05T05:53:40.489Z,95.50
2018-12-05T05:56:14.761Z,95.60
2018-12-05T05:58:49.321Z,95.70
2018-12-05T06:01:23.980Z,95.70
2018-12-05T06:03:58.278Z,95.60
2018-12-05T06:06:32.685Z,95.70
2018-12-05T06:09:08.049Z,95.60
2018-12-05T06:11:42.450Z,95.70
2018-12-05T06:14:16.869Z,95.80
2018-12-05T06:16:51.162Z,95.60
2018-12-05T06:19:25.396Z,95.50
2018-12-05T06:21:59.825Z,95.70
2018-12-05T06:24:34.110Z,95.70
2018-12-05T06:27:08.495Z,95.80
2018-12-05T06:29:42.942Z,95.90
2018-12-05T06:32:17.161Z,95.80
2018-12-05T06:34:51.556Z,95.80
2018-12-05T06:37:25.809Z,95.80
2018-12-05T06:40:00.248Z,95.60
2018-12-05T06:42:34.572Z,95.60
2018-12-05T06:45:08.958Z,95.40
2018-12-05T06:47:43.314Z,95.40
2018-12-05T06:50:17.580Z,95.40
2018-12-05T06:52:51.807Z,95.30
2018-12-05T06:55:26.111Z,95.40
2018-12-05T06:58:00.512Z,95.30
2018-12-05T07:00:34.901Z,95.10
2018-12-05T07:03:09.338Z,95.40
2018-12-05T07:05:43.871Z,95.50
2018-12-05T07:08:18.066Z,95.50
2018-12-05T07:10:52.509Z,95.50
2018-12-05T07:13:26.878Z,95.40
2018-12-05T07:16:01.168Z,95.40
2018-12-05T07:18:35.497Z,95.50
2018-12-05T07:21:09.848Z,95.60
2018-12-05T07:23:44.157Z,95.60
2018-12-05T07:26:18.570Z,95.60
2018-12-05T07:28:52.921Z,95.60
2018-12-05T07:31:27.329Z,95.60
2018-12-05T07:34:01.715Z,95.70
2018-12-05T07:36:36.102Z,95.80
2018-12-05T07:39:10.407Z,95.80
2018-12-05T07:41:44.968Z,95.70
2018-12-05T07:44:19.248Z,95.60
2018-12-05T07:46:53.589Z,95.70
2018-12-05T07:49:28.081Z,95.50
2018-12-05T07:52:02.433Z,95.90
2018-12-05T07:54:36.682Z,95.90
2018-12-05T07:57:10.896Z,95.90
2018-12-05T07:59:45.478Z,96.10
2018-12-05T08:02:19.924Z,96.20
2018-12-05T08:04:54.270Z,96.40
2018-12-05T08:07:28.778Z,96.40
2018-12-05T08:10:03.303Z,96.40
2018-12-05T08:12:37.781Z,96.30
2018-12-05T08:15:12.009Z,96.20
2018-12-05T08:17:46.455Z,96.30
2018-12-05T08:20:21.038Z,96.40
2018-12-05T08:22:55.433Z,96.50
2018-12-05T08:25:29.896Z,96.80
2018-12-05T08:28:04.200Z,96.60
2018-12-05T08:30:38.657Z,96.40
2018-12-05T08:33:12.985Z,96.40
2018-12-05T08:35:47.281Z,96.30
2018-12-05T08:38:21.569Z,96.00
2018-12-05T08:40:55.977Z,96.00
2018-12-05T08:43:30.185Z,96.20
2018-12-05T08:46:04.583Z,96.20
2018-12-05T08:48:38.904Z,96.20
2018-12-05T08:51:13.328Z,96.10
2018-12-05T08:53:47.776Z,96.10
2018-12-05T08:56:22.038Z,96.10
2018-12-05T08:58:56.266Z,95.90
2018-12-05T09:01:30.762Z,95.70
2018-12-05T09:04:05.358Z,95.60
2018-12-05T09:06:39.609Z,95.50
2018-12-05T09:09:13.917Z,95.50
2018-12-05T09:11:48.434Z,95.60
2018-12-05T09:14:28.726Z,95.50
2018-12-05T09:16:59.233Z,95.70
2018-12-05T09:19:33.811Z,95.60
2018-12-05T09:22:08.217Z,95.60
2018-12-05T09:24:42.656Z,95.60
2018-12-05T09:27:17.217Z,95.50
2018-12-05T09:29:51.701Z,95.30
2018-12-05T09:32:25.968Z,95.10
2018-12-05T09:35:00.377Z,95.10
2018-12-05T09:37:34.726Z,95.30
2018-12-05T09:40:09.183Z,95.20
2018-12-05T09:42:43.705Z,95.30
2018-12-05T09:45:18.219Z,95.40
2018-12-05T09:47:52.593Z,95.40
2018-12-05T09:50:27.049Z,95.30
2018-12-05T09:53:01.414Z,95.40
2018-12-05T09:55:35.743Z,95.30
2018-12-05T09:58:10.090Z,95.30
2018-12-05T10:00:44.414Z,95.40
2018-12-05T10:03:18.810Z,95.30
2018-12-05T10:05:53.119Z,95.30
2018-12-05T10:08:27.470Z,95.50
2018-12-05T10:11:01.801Z,95.40
2018-12-05T10:13:36.298Z,95.40
2018-12-05T10:16:10.701Z,95.50
2018-12-05T10:18:45.085Z,95.40
2018-12-05T10:21:19.407Z,95.50
2018-12-05T10:23:53.726Z,95.40
2018-12-05T10:26:28.282Z,95.40
2018-12-05T10:29:02.652Z,95.40
2018-12-05T10:31:43.846Z,95.50
2018-12-05T10:34:13.363Z,95.50
2018-12-05T10:36:47.790Z,95.40
2018-12-05T10:39:22.089Z,95.40
2018-12-05T10:41:56.436Z,95.30
2018-12-05T10:44:30.717Z,95.50
2018-12-05T10:47:05.184Z,95.60
2018-12-05T10:49:39.637Z,95.50
2018-12-05T10:52:14.077Z,95.60
2018-12-05T10:54:48.489Z,95.40
2018-12-05T10:57:22.853Z,95.30
2018-12-05T10:59:57.220Z,95.30
2018-12-05T11:02:37.174Z,95.20
2018-12-05T11:05:17.067Z,95.60
2018-12-05T11:07:56.857Z,95.70
2018-12-05T11:10:36.744Z,95.50
2018-12-05T11:13:16.623Z,95.50
2018-12-05T11:15:56.486Z,96.00
2018-12-05T11:18:36.334Z,95.90
2018-12-05T11:21:16.164Z,96.10
2018-12-05T11:23:56.154Z,95.80
2018-12-05T11:26:33.091Z,96.00
2018-12-05T11:29:07.516Z,95.70
2018-12-05T11:31:41.909Z,95.70
2018-12-05T11:34:16.345Z,95.80
2018-12-05T11:36:50.790Z,95.80
2018-12-05T11:39:25.083Z,95.90
2018-12-05T11:41:59.615Z,95.50
2018-12-05T11:44:33.977Z,95.50
2018-12-05T11:47:08.348Z,95.70
2018-12-05T11:49:42.801Z,95.70
2018-12-05T11:52:17.053Z,96.00
2018-12-05T11:54:51.520Z,95.90
2018-12-05T11:57:26.142Z,95.50
2018-12-05T12:00:00.436Z,95.30
2018-12-05T12:02:34.829Z,95.40
2018-12-05T12:05:09.389Z,95.10
2018-12-05T12:07:43.844Z,95.10
2018-12-05T12:10:20.389Z,95.00
2018-12-05T12:13:00.262Z,95.00
2018-12-05T12:15:34.734Z,95.10
2018-12-05T12:18:09.024Z,95.00
2018-12-05T12:20:43.301Z,94.80
2018-12-05T12:23:17.614Z,94.70
2018-12-05T12:25:52.026Z,94.80
2018-12-05T12:28:26.486Z,94.80
2018-12-05T12:31:01.098Z,94.90
2018-12-05T12:33:35.457Z,94.70
2018-12-05T12:36:09.923Z,94.70
2018-12-05T12:38:44.269Z,94.90
2018-12-05T12:41:18.742Z,95.00
2018-12-05T12:43:53.023Z,94.70
2018-12-05T12:46:27.473Z,94.60
2018-12-05T12:49:01.699Z,94.50
2018-12-05T12:51:36.208Z,94.60
2018-12-05T12:54:10.476Z,94.60
2018-12-05T12:56:44.814Z,94.70
2018-12-05T12:59:19.240Z,94.30
2018-12-05T13:01:53.712Z,94.30
2018-12-05T13:04:29.050Z,94.50
2018-12-05T13:07:03.409Z,94.60
2018-12-05T13:09:37.828Z,94.70
2018-12-05T13:12:16.458Z,94.40
2018-12-05T13:14:50.935Z,94.40
2018-12-05T13:17:25.356Z,94.40
2018-12-05T13:19:59.727Z,94.40
2018-12-05T13:22:34.091Z,94.50
2018-12-05T13:25:08.715Z,94.50
2018-12-05T13:27:43.220Z,94.20
2018-12-05T13:30:17.513Z,94.20
2018-12-05T13:32:51.766Z,94.20
2018-12-05T13:35:26.206Z,94.10
2018-12-05T13:38:00.830Z,94.10
2018-12-05T13:40:35.245Z,94.40
2018-12-05T13:43:09.630Z,94.50
2018-12-05T13:45:43.926Z,94.30
2018-12-05T13:48:18.281Z,94.40
2018-12-05T13:50:54.001Z,94.20
2018-12-05T13:53:28.322Z,93.90
2018-12-05T13:56:03.015Z,93.70
2018-12-05T13:58:37.446Z,93.60
2018-12-05T14:01:11.900Z,93.40
2018-12-05T14:03:46.444Z,93.40
2018-12-05T14:06:20.709Z,93.60
2018-12-05T14:08:56.213Z,93.70
2018-12-05T14:11:30.604Z,93.70
2018-12-05T14:14:05.140Z,93.80
2018-12-05T14:16:39.627Z,93.40
2018-12-05T14:19:14.183Z,93.10
2018-12-05T14:21:48.627Z,93.30
2018-12-05T14:24:22.994Z,93.20
2018-12-05T14:26:57.492Z,93.30
2018-12-05T14:29:31.986Z,93.30
2018-12-05T14:32:06.235Z,93.40
2018-12-05T14:34:40.473Z,93.50
2018-12-05T14:37:14.821Z,93.40
2018-12-05T14:39:49.358Z,93.60
2018-12-05T14:42:23.954Z,93.60
2018-12-05T14:44:58.224Z,93.60
2018-12-05T14:47:32.606Z,93.70
2018-12-05T14:50:07.366Z,93.50
2018-12-05T14:52:41.930Z,93.60
2018-12-05T14:55:16.445Z,93.70
2018-12-05T14:57:50.766Z,93.80
2018-12-05T15:00:25.141Z,93.80
2018-12-05T15:02:59.640Z,93.80
2018-12-05T15:05:33.957Z,93.80
2018-12-05T15:08:08.343Z,93.80
2018-12-05T15:10:42.981Z,93.90
2018-12-05T15:13:17.517Z,94.00
2018-12-05T15:15:51.829Z,94.00
2018-12-05T15:18:26.138Z,94.10
2018-12-05T15:21:00.565Z,94.10
2018-12-05T15:23:34.975Z,94.30
2018-12-05T15:26:09.502Z,94.20
2018-12-05T15:28:43.874Z,94.30
2018-12-05T15:31:18.192Z,94.50
2018-12-05T15:33:52.641Z,94.50
2018-12-05T15:36:26.873Z,94.70
2018-12-05T15:39:01.301Z,94.70
2018-12-05T15:41:35.831Z,94.70
2018-12-05T15:44:10.239Z,94.70
2018-12-05T15:46:44.612Z,94.70
2018-12-05T15:49:19.050Z,94.70
2018-12-05T15:51:53.410Z,95.00
2018-12-05T15:54:27.844Z,94.70
2018-12-05T15:57:09.645Z,94.70
2018-12-05T15:59:38.965Z,94.60
2018-12-05T16:02:13.546Z,94.60
2018-12-05T16:04:48.370Z,94.60
2018-12-05T16:07:22.697Z,94.40
2018-12-05T16:09:57.205Z,94.40
2018-12-05T16:12:31.612Z,94.40
2018-12-05T16:15:06.215Z,94.60
2018-12-05T16:17:40.662Z,94.70
2018-12-05T16:20:14.948Z,94.80
2018-12-05T16:22:49.350Z,95.10
2018-12-05T16:25:23.808Z,95.10
2018-12-05T16:27:58.136Z,95.20
2018-12-05T16:30:32.673Z,95.30
2018-12-05T16:33:07.106Z,95.40
2018-12-05T16:35:41.471Z,95.60
2018-12-05T16:38:15.931Z,95.80
2018-12-05T16:40:50.204Z,95.90
2018-12-05T16:43:24.610Z,96.00
2018-12-05T16:45:58.829Z,96.00
2018-12-05T16:48:33.222Z,96.50
2018-12-05T16:51:07.722Z,96.30
2018-12-05T16:53:41.973Z,96.30
2018-12-05T16:56:16.406Z,96.30
2018-12-05T16:58:50.704Z,96.20
2018-12-05T17:01:25.027Z,96.20
2018-12-05T17:03:59.429Z,96.10
2018-12-05T17:06:33.728Z,96.10
2018-12-05T17:09:08.429Z,96.10
2018-12-05T17:11:42.817Z,96.10
2018-12-05T17:14:17.077Z,96.20
2018-12-05T17:16:51.395Z,96.20
2018-12-05T17:19:25.690Z,96.30
2018-12-05T17:22:00.005Z,96.40
2018-12-05T17:24:34.586Z,96.40
2018-12-05T17:27:08.985Z,96.30
2018-12-05T17:29:44.329Z,96.20
2018-12-05T17:32:18.756Z,96.10
2018-12-05T17:34:53.078Z,96.10
2018-12-05T17:37:27.494Z,96.10
2018-12-05T17:40:01.875Z,96.10
2018-12-05T17:42:36.310Z,96.00
2018-12-05T17:45:10.749Z,96.00
2018-12-05T17:47:45.425Z,95.80
2018-12-05T17:50:19.874Z,95.80
2018-12-05T17:52:54.255Z,95.70
2018-12-05T17:55:28.533Z,95.50
2018-12-05T17:58:02.879Z,95.50
2018-12-05T18:00:37.129Z,95.40
2018-12-05T18:03:11.522Z,95.30
2018-12-05T18:05:46.034Z,95.20
2018-12-05T18:08:20.387Z,95.30
2018-12-05T18:10:55.696Z,95.40
2018-12-05T18:13:30.061Z,95.40
2018-12-05T18:16:04.625Z,95.80
2018-12-05T18:18:39.066Z,95.50
2018-12-05T18:21:13.348Z,95.30
2018-12-05T18:23:47.707Z,95.20
2018-12-05T18:26:22.066Z,95.20
2018-12-05T18:28:56.409Z,95.20
2018-12-05T18:31:31.980Z,95.20
2018-12-05T18:34:06.516Z,95.40
2018-12-05T18:36:41.231Z,95.10
2018-12-05T18:39:15.668Z,95.10
2018-12-05T18:41:49.992Z,95.20
2018-12-05T18:44:24.539Z,95.20
2018-12-05T18:46:59.008Z,95.20
2018-12-05T18:49:33.399Z,95.20
2018-12-05T18:52:07.950Z,95.20
2018-12-05T18:54:42.353Z,95.00
2018-12-05T18:57:16.669Z,95.00
2018-12-05T18:59:50.940Z,95.00
2018-12-05T19:02:25.334Z,95.00
2018-12-05T19:04:59.839Z,95.00
2018-12-05T19:07:34.360Z,95.00
2018-12-05T19:10:08.841Z,95.00
2018-12-05T19:12:43.273Z,95.00
2018-12-05T19:15:17.649Z,95.10
2018-12-05T19:17:52.156Z,95.20
2018-12-05T19:20:26.595Z,95.20
2018-12-05T19:23:01.174Z,95.30
2018-12-05T19:25:35.489Z,95.30
2018-12-05T19:28:09.860Z,95.30
2018-12-05T19:30:44.281Z,95.40
2018-12-05T19:33:18.596Z,95.30
2018-12-05T19:35:56.866Z,95.40
2018-12-05T19:38:31.212Z,95.30
2018-12-05T19:41:05.937Z,95.30
2018-12-05T19:43:40.633Z,95.20
2018-12-05T19:46:19.097Z,95.20
2018-12-05T19:48:54.137Z,95.20
2018-12-05T19:51:28.611Z,95.10
2018-12-05T19:54:03.684Z,95.30
2018-12-05T19:56:43.507Z,95.30
2018-12-05T19:59:17.896Z,95.50
2018-12-05T20:01:54.365Z,95.50
2018-12-05T20:04:28.665Z,95.50
2018-12-05T20:07:03.255Z,95.30
2018-12-05T20:09:41.685Z,95.40
2018-12-05T20:12:16.242Z,95.50
2018-12-05T20:14:51.742Z,95.30
2018-12-05T20:17:26.249Z,95.30
2018-12-05T20:20:00.612Z,95.50
2018-12-05T20:22:34.959Z,95.60
2018-12-05T20:25:09.579Z,95.80
2018-12-05T20:27:43.861Z,95.90
2018-12-05T20:30:20.162Z,95.80
2018-12-05T20:32:54.498Z,95.80
2018-12-05T20:35:30.101Z,95.70
2018-12-05T20:38:04.376Z,95.80
2018-12-05T20:40:38.882Z,95.80
2018-12-05T20:43:13.647Z,95.90
2018-12-05T20:45:48.294Z,96.00
2018-12-05T20:48:23.745Z,95.90
2018-12-05T20:50:58.213Z,95.70
2018-12-05T20:53:33.601Z,95.70
2018-12-05T20:56:07.945Z,95.70
2018-12-05T20:58:42.298Z,95.80
2018-12-05T21:01:16.801Z,95.80
2018-12-05T21:03:51.394Z,95.90
2018-12-05T21:06:25.785Z,95.80
2018-12-05T21:09:00.279Z,95.70
2018-12-05T21:11:34.696Z,95.70
2018-12-05T21:14:09.437Z,95.60
2018-12-05T21:16:44.068Z,95.60
2018-12-05T21:19:18.438Z,95.60
2018-12-05T21:21:52.928Z,95.50
2018-12-05T21:24:27.318Z,95.50
2018-12-05T21:27:01.782Z,95.50
2018-12-05T21:29:37.030Z,95.50
2018-12-05T21:32:11.383Z,95.50
2018-12-05T21:34:45.755Z,95.60
2018-12-05T21:37:20.189Z,95.50
2018-12-05T21:39:54.457Z,95.50
2018-12-05T21:42:28.941Z,95.60
2018-12-05T21:45:03.661Z,95.60
2018-12-05T21:47:40.142Z,95.70
2018-12-05T21:50:14.543Z,95.80
2018-12-05T21:52:48.937Z,95.90
2018-12-05T21:55:25.430Z,95.70
2018-12-05T21:57:59.662Z,95.90
2018-12-05T22:00:34.237Z,96.10
2018-12-05T22:03:13.635Z,96.10
2018-12-05T22:05:49.120Z,95.90
2018-12-05T22:08:23.402Z,96.00
2018-12-05T22:10:58.789Z,96.30
2018-12-05T22:13:33.123Z,96.50
2018-12-05T22:16:07.376Z,96.50
2018-12-05T22:18:41.731Z,96.50
2018-12-05T22:21:16.016Z,96.50
2018-12-05T22:23:50.353Z,96.50
2018-12-05T22:26:24.779Z,96.50
2018-12-05T22:28:59.147Z,96.40
2018-12-05T22:31:33.550Z,96.40
2018-12-05T22:34:08.050Z,96.40
2018-12-05T22:36:42.486Z,96.30
2018-12-05T22:39:16.821Z,96.20
2018-12-05T22:41:52.257Z,96.10
2018-12-05T22:44:26.751Z,96.20
2018-12-05T22:47:01.216Z,96.20
2018-12-05T22:49:35.616Z,96.30
2018-12-05T22:52:10.035Z,96.20
2018-12-05T22:54:44.417Z,96.10
2018-12-05T22:57:19.047Z,96.10
2018-12-05T22:59:53.379Z,96.00
2018-12-05T23:02:29.727Z,96.20
2018-12-05T23:05:04.459Z,96.30
2018-12-05T23:07:38.950Z,96.30
2018-12-05T23:10:13.569Z,96.30
2018-12-05T23:12:49.054Z,96.10
2018-12-05T23:15:23.671Z,96.20
2018-12-05T23:18:00.103Z,96.40
2018-12-05T23:20:34.480Z,96.60
2018-12-05T23:23:08.983Z,96.80
2018-12-05T23:25:43.394Z,96.90
2018-12-05T23:28:17.734Z,96.90
2018-12-05T23:30:52.216Z,96.90
2018-12-05T23:33:26.678Z,96.90
2018-12-05T23:36:00.988Z,96.90
2018-12-05T23:38:35.481Z,97.00
2018-12-05T23:41:09.950Z,97.00
2018-12-05T23:43:44.357Z,97.10
2018-12-05T23:46:18.681Z,97.10
2018-12-05T23:48:53.422Z,97.00
2018-12-05T23:51:27.733Z,97.00
2018-12-05T23:54:02.148Z,96.90
2018-12-05T23:56:36.457Z,96.80
2018-12-05T23:59:10.878Z,97.00
